Luck, Wisconsin
Current Conditions -  °F | °C
As of 10:55 PM on Thursday 30 Oct 2014 (Local Time) from KRZN Reporting Station
Scattered Clouds Scattered Clouds  
Wind Chill: 21°   Ceiling: Unl
Heat Index: 31°   Visibility: 10mi
Dew Point: 17°   Wind: 13mph
Humidity: 58%   Direction: 350°N
Pressure: 30.32"   Gusts: 22mph
Location:  45.58°N, 92.48°W
Report Text: KRZN 310355Z AUTO 35011G19KT 10SM SCT041 SCT047 M01/M08 A3032 RMK AO2 T10071081
Loading
Personal Weather Stations






























Interactive Weather Map
Tropical Storm Tracking
New forecast layout! Learn more

10-Day Weather Forecast

Advertisements
Track Severe Weather on mobile